createdAt,value
2022-08-07T00:00:26.597Z,9.98
2022-08-07T00:01:44.015Z,9.97
2022-08-07T00:02:40.602Z,9.87
2022-08-07T00:03:26.578Z,9.80
2022-08-07T00:04:25.651Z,9.89
2022-08-07T00:05:25.558Z,9.86
2022-08-07T00:06:29.602Z,9.62
2022-08-07T00:07:27.312Z,9.62
2022-08-07T00:08:25.536Z,9.51
2022-08-07T00:09:34.337Z,9.54
2022-08-07T00:10:30.658Z,9.61
2022-08-07T00:11:29.964Z,9.56
2022-08-07T00:12:25.605Z,9.65
2022-08-07T00:13:26.773Z,9.48
2022-08-07T00:14:30.223Z,9.62
2022-08-07T00:15:25.492Z,9.89
2022-08-07T00:16:28.057Z,10.05
2022-08-07T00:17:25.750Z,9.91
2022-08-07T00:18:25.525Z,9.97
2022-08-07T00:19:26.160Z,9.76
2022-08-07T00:20:29.569Z,9.66
2022-08-07T00:21:57.335Z,9.44
2022-08-07T00:22:35.334Z,9.39
2022-08-07T00:23:25.527Z,9.50
2022-08-07T00:24:25.419Z,9.47
2022-08-07T00:25:26.411Z,9.56
2022-08-07T00:26:58.970Z,9.51
2022-08-07T00:27:27.506Z,9.55
2022-08-07T00:28:31.597Z,9.64
2022-08-07T00:29:26.475Z,10.05
2022-08-07T00:30:27.121Z,10.13
2022-08-07T00:31:25.425Z,10.13
2022-08-07T00:32:28.422Z,9.99
2022-08-07T00:33:25.365Z,9.97
2022-08-07T00:34:25.396Z,9.87
2022-08-07T00:35:25.353Z,9.86
2022-08-07T00:36:25.342Z,9.69
2022-08-07T00:37:25.340Z,9.56
2022-08-07T00:38:31.630Z,9.51
2022-08-07T00:39:25.387Z,9.40
2022-08-07T00:40:39.604Z,9.43
2022-08-07T00:41:26.301Z,9.39
2022-08-07T00:42:25.542Z,9.40
2022-08-07T00:44:01.081Z,9.40
2022-08-07T00:44:26.542Z,9.51
2022-08-07T00:45:25.293Z,9.54
2022-08-07T00:46:25.268Z,9.29
2022-08-07T00:48:08.985Z,9.26
2022-08-07T00:48:31.941Z,9.36
2022-08-07T00:50:19.185Z,9.37
2022-08-07T00:50:50.670Z,9.56
2022-08-07T00:51:27.883Z,9.56
2022-08-07T00:52:26.225Z,9.40
2022-08-07T00:53:25.214Z,9.32
2022-08-07T00:54:25.206Z,9.34
2022-08-07T00:56:00.493Z,9.26
2022-08-07T00:56:30.027Z,9.23
2022-08-07T00:57:26.134Z,9.22
2022-08-07T00:58:25.200Z,9.13
2022-08-07T00:59:35.903Z,9.22
2022-08-07T01:00:26.208Z,9.08
2022-08-07T01:01:25.164Z,8.94
2022-08-07T01:02:28.458Z,8.99
2022-08-07T01:03:25.457Z,9.13
2022-08-07T01:04:26.178Z,9.11
2022-08-07T01:05:25.134Z,9.28
2022-08-07T01:06:25.154Z,9.28
2022-08-07T01:07:25.120Z,9.48
2022-08-07T01:08:25.118Z,9.46
2022-08-07T01:10:03.943Z,9.41
2022-08-07T01:10:26.096Z,9.21
2022-08-07T01:12:24.119Z,9.10
2022-08-07T01:12:29.792Z,9.26
2022-08-07T01:13:25.065Z,9.36
2022-08-07T01:14:28.154Z,9.36
2022-08-07T01:15:35.831Z,9.26
2022-08-07T01:16:30.540Z,9.19
2022-08-07T01:17:26.233Z,8.95
2022-08-07T01:18:25.045Z,8.85
2022-08-07T01:19:25.057Z,8.99
2022-08-07T01:20:25.038Z,9.06
2022-08-07T01:21:26.259Z,9.28
2022-08-07T01:22:29.451Z,9.21
2022-08-07T01:23:34.624Z,9.06
2022-08-07T01:24:25.990Z,8.91
2022-08-07T01:25:54.154Z,8.88
2022-08-07T01:26:26.299Z,8.89
2022-08-07T01:27:25.064Z,8.79
2022-08-07T01:28:25.995Z,8.70
2022-08-07T01:29:27.780Z,8.64
2022-08-07T01:30:27.011Z,8.70
2022-08-07T01:31:24.940Z,8.74
2022-08-07T01:32:24.956Z,8.71
2022-08-07T01:33:24.983Z,8.81
2022-08-07T01:34:30.694Z,8.76
2022-08-07T01:35:24.911Z,8.81
2022-08-07T01:36:34.034Z,8.63
2022-08-07T01:37:25.994Z,8.67
2022-08-07T01:38:25.938Z,8.52
2022-08-07T01:39:24.922Z,8.52
2022-08-07T01:40:25.905Z,8.78
2022-08-07T01:41:26.039Z,8.89
2022-08-07T01:42:38.580Z,9.00
2022-08-07T01:43:26.125Z,8.97
2022-08-07T01:44:25.859Z,8.92
2022-08-07T01:45:26.678Z,8.87
2022-08-07T01:46:25.838Z,8.84
2022-08-07T01:48:20.585Z,8.87
2022-08-07T01:48:30.418Z,8.78
2022-08-07T01:49:25.899Z,8.79
2022-08-07T01:50:28.996Z,8.67
2022-08-07T01:52:02.503Z,8.60
2022-08-07T01:52:25.798Z,8.52
2022-08-07T01:54:08.830Z,8.44
2022-08-07T01:54:32.864Z,8.61
2022-08-07T01:55:25.808Z,8.64
2022-08-07T01:56:24.775Z,8.97
2022-08-07T01:57:25.159Z,9.18
2022-08-07T01:58:29.193Z,9.11
2022-08-07T01:59:30.890Z,9.22
2022-08-07T02:00:28.841Z,8.97
2022-08-07T02:01:58.854Z,9.04
2022-08-07T02:03:05.614Z,8.79
2022-08-07T02:03:26.560Z,8.61
2022-08-07T02:04:26.681Z,8.66
2022-08-07T02:05:48.244Z,8.58
2022-08-07T02:06:31.968Z,8.55
2022-08-07T02:07:25.874Z,8.46
2022-08-07T02:08:25.687Z,8.49
2022-08-07T02:09:52.428Z,8.37
2022-08-07T02:10:25.705Z,8.46
2022-08-07T02:11:30.905Z,8.37
2022-08-07T02:12:30.956Z,8.60
2022-08-07T02:13:27.583Z,8.52
2022-08-07T02:14:35.742Z,8.53
2022-08-07T02:15:28.041Z,8.61
2022-08-07T02:16:28.721Z,8.49
2022-08-07T02:17:27.460Z,8.36
2022-08-07T02:18:25.886Z,8.31
2022-08-07T02:20:05.402Z,8.41
2022-08-07T02:20:25.596Z,8.51
2022-08-07T02:21:24.642Z,8.52
2022-08-07T02:22:25.751Z,8.41
2022-08-07T02:23:24.606Z,8.26
2022-08-07T02:24:24.565Z,8.27
2022-08-07T02:26:10.388Z,8.31
2022-08-07T02:26:32.602Z,8.33
2022-08-07T02:27:25.584Z,8.46
2022-08-07T02:28:25.756Z,8.55
2022-08-07T02:29:24.527Z,8.81
2022-08-07T02:30:24.525Z,8.95
2022-08-07T02:31:29.150Z,8.97
2022-08-07T02:32:29.815Z,8.85
2022-08-07T02:33:24.502Z,8.73
2022-08-07T02:34:24.491Z,8.91
2022-08-07T02:36:29.206Z,8.85
2022-08-07T02:36:29.844Z,8.92
2022-08-07T02:37:25.628Z,8.95
2022-08-07T02:38:28.267Z,9.14
2022-08-07T02:39:43.544Z,9.14
2022-08-07T02:40:34.893Z,9.16
2022-08-07T02:41:25.474Z,8.97
2022-08-07T02:42:25.426Z,8.94
2022-08-07T02:43:24.480Z,8.99
2022-08-07T02:44:27.707Z,8.95
2022-08-07T02:46:00.364Z,9.04
2022-08-07T02:46:25.780Z,8.79
2022-08-07T02:47:24.425Z,8.85
2022-08-07T02:48:24.442Z,8.89
2022-08-07T02:49:29.179Z,8.89
2022-08-07T02:50:25.370Z,8.91
2022-08-07T02:51:42.144Z,9.02
2022-08-07T02:52:31.956Z,9.00
2022-08-07T02:53:27.479Z,8.58
2022-08-07T02:54:25.204Z,8.41
2022-08-07T02:55:28.306Z,8.26
2022-08-07T02:56:25.332Z,8.18
2022-08-07T02:57:24.334Z,8.24
2022-08-07T02:58:27.317Z,8.10
2022-08-07T02:59:27.476Z,8.12
2022-08-07T03:00:24.323Z,8.06
2022-08-07T03:01:35.518Z,8.12
2022-08-07T03:02:25.277Z,8.13
2022-08-07T03:03:24.278Z,8.10
2022-08-07T03:04:25.325Z,8.15
2022-08-07T03:05:24.650Z,8.15
2022-08-07T03:06:26.040Z,8.00
2022-08-07T03:08:05.096Z,7.82
2022-08-07T03:08:27.033Z,7.70
2022-08-07T03:09:43.850Z,7.87
2022-08-07T03:10:25.269Z,8.00
2022-08-07T03:11:25.334Z,7.98
2022-08-07T03:12:31.015Z,7.83
2022-08-07T03:13:25.208Z,7.79
2022-08-07T03:14:24.206Z,7.73
2022-08-07T03:15:30.235Z,7.70
2022-08-07T03:16:27.797Z,7.70
2022-08-07T03:17:24.189Z,7.67
2022-08-07T03:18:24.424Z,7.98
2022-08-07T03:19:29.073Z,7.87
2022-08-07T03:20:25.193Z,7.75
2022-08-07T03:21:24.152Z,7.79
2022-08-07T03:22:24.250Z,7.73
2022-08-07T03:23:34.144Z,7.77
2022-08-07T03:24:27.270Z,7.82
2022-08-07T03:25:24.120Z,7.69
2022-08-07T03:26:24.173Z,7.69
2022-08-07T03:27:30.268Z,7.70
2022-08-07T03:28:37.592Z,7.57
2022-08-07T03:29:25.105Z,7.39
2022-08-07T03:30:24.313Z,7.45
2022-08-07T03:31:26.201Z,7.57
2022-08-07T03:32:25.081Z,7.72
2022-08-07T03:33:24.065Z,7.82
2022-08-07T03:34:27.435Z,7.90
2022-08-07T03:35:26.266Z,7.63
2022-08-07T03:36:25.813Z,7.60
2022-08-07T03:37:27.609Z,7.56
2022-08-07T03:38:31.125Z,7.56
2022-08-07T03:39:46.316Z,7.54
2022-08-07T03:40:30.836Z,7.45
2022-08-07T03:41:42.067Z,7.63
2022-08-07T03:42:25.077Z,7.73
2022-08-07T03:43:26.521Z,7.58
2022-08-07T03:44:31.900Z,7.58
2022-08-07T03:45:30.877Z,7.54
2022-08-07T03:46:24.970Z,7.48
2022-08-07T03:47:25.027Z,7.56
2022-08-07T03:48:23.962Z,7.56
2022-08-07T03:49:23.963Z,7.73
2022-08-07T03:50:23.953Z,7.54
2022-08-07T03:51:23.948Z,7.40
2022-08-07T03:52:27.053Z,7.42
2022-08-07T03:53:49.998Z,7.50
2022-08-07T03:54:35.221Z,7.43
2022-08-07T03:55:24.947Z,7.42
2022-08-07T03:56:32.794Z,7.50
2022-08-07T03:58:34.194Z,7.48
2022-08-07T03:59:07.358Z,7.61
2022-08-07T03:59:24.894Z,7.58
2022-08-07T04:00:30.690Z,7.61
2022-08-07T04:01:23.899Z,7.48
2022-08-07T04:02:23.866Z,7.60
2022-08-07T04:03:24.926Z,7.57
2022-08-07T04:04:23.856Z,7.61
2022-08-07T04:05:28.800Z,7.66
2022-08-07T04:06:37.810Z,7.47
2022-08-07T04:07:24.832Z,7.56
2022-08-07T04:08:23.876Z,7.54
2022-08-07T04:09:23.835Z,7.67
2022-08-07T04:10:23.821Z,7.77
2022-08-07T04:12:25.207Z,7.88
2022-08-07T04:12:29.037Z,7.95
2022-08-07T04:13:27.611Z,7.85
2022-08-07T04:14:38.704Z,7.73
2022-08-07T04:15:24.815Z,7.70
2022-08-07T04:16:30.800Z,7.66
2022-08-07T04:17:23.749Z,7.63
2022-08-07T04:18:56.261Z,7.75
2022-08-07T04:19:24.795Z,7.87
2022-08-07T04:20:25.313Z,7.88
2022-08-07T04:21:23.729Z,8.05
2022-08-07T04:22:27.611Z,8.05
2022-08-07T04:23:24.710Z,8.03
2022-08-07T04:24:30.591Z,8.09
2022-08-07T04:25:24.743Z,8.18
2022-08-07T04:26:23.696Z,8.38
2022-08-07T04:27:36.313Z,8.49
2022-08-07T04:28:24.678Z,8.49
2022-08-07T04:29:23.662Z,8.70
2022-08-07T04:30:39.603Z,8.82
2022-08-07T04:31:38.832Z,8.89
2022-08-07T04:32:34.015Z,9.03
2022-08-07T04:33:23.636Z,9.08
2022-08-07T04:34:27.608Z,9.28
2022-08-07T04:35:24.715Z,9.43
2022-08-07T04:36:26.387Z,9.41
2022-08-07T04:37:23.598Z,9.55
2022-08-07T04:38:23.614Z,9.58
2022-08-07T04:39:26.286Z,9.62
2022-08-07T04:40:29.755Z,9.56
2022-08-07T04:41:23.673Z,9.64
2022-08-07T04:42:23.680Z,9.65
2022-08-07T04:44:10.285Z,9.66
2022-08-07T04:44:24.560Z,9.69
2022-08-07T04:45:57.269Z,9.84
2022-08-07T04:46:29.313Z,9.87
2022-08-07T04:47:57.292Z,9.92
2022-08-07T04:48:24.531Z,9.86
2022-08-07T04:49:24.595Z,9.83
2022-08-07T04:50:23.524Z,9.91
2022-08-07T04:51:27.284Z,9.73
2022-08-07T04:52:25.133Z,9.55
2022-08-07T04:53:40.228Z,9.59
2022-08-07T04:54:30.142Z,9.74
2022-08-07T04:58:10.235Z,9.73
2022-08-07T04:58:10.818Z,9.73
2022-08-07T04:58:31.473Z,9.86
2022-08-07T04:58:33.842Z,9.92
2022-08-07T05:00:12.345Z,9.84
2022-08-07T05:00:30.918Z,9.79
2022-08-07T05:01:30.422Z,9.83
2022-08-07T05:02:24.457Z,9.80
2022-08-07T05:03:49.926Z,9.74
2022-08-07T05:04:24.426Z,9.80
2022-08-07T05:05:53.633Z,9.79
2022-08-07T05:06:28.233Z,9.84
2022-08-07T05:07:27.589Z,9.87
2022-08-07T05:09:00.024Z,9.92
2022-08-07T05:09:43.097Z,9.99
2022-08-07T05:10:24.377Z,10.17
2022-08-07T05:11:26.109Z,10.28
2022-08-07T05:12:27.334Z,10.38
2022-08-07T05:14:54.209Z,10.64
2022-08-07T05:14:55.624Z,10.53
2022-08-07T05:15:24.366Z,10.64
2022-08-07T05:16:23.350Z,10.71
2022-08-07T05:17:52.231Z,10.57
2022-08-07T05:18:24.390Z,10.75
2022-08-07T05:19:25.656Z,10.78
2022-08-07T05:20:24.314Z,10.64
2022-08-07T05:22:00.611Z,10.61
2022-08-07T05:22:27.781Z,10.54
2022-08-07T05:23:30.105Z,10.41
2022-08-07T05:24:24.708Z,10.37
2022-08-07T05:25:25.913Z,10.51
2022-08-07T05:26:24.688Z,10.56
2022-08-07T05:28:03.290Z,10.60
2022-08-07T05:28:26.766Z,10.75
2022-08-07T05:29:23.282Z,10.84
2022-08-07T05:30:30.211Z,10.76
2022-08-07T05:31:24.239Z,10.81
2022-08-07T05:32:24.275Z,11.04
2022-08-07T05:33:23.201Z,11.11
2022-08-07T05:34:26.287Z,11.19
2022-08-07T05:35:33.241Z,11.40
2022-08-07T05:36:30.535Z,11.37
2022-08-07T05:37:25.172Z,11.51
2022-08-07T05:39:00.226Z,11.60
2022-08-07T05:40:14.377Z,11.80
2022-08-07T05:40:24.256Z,11.70
2022-08-07T05:41:23.220Z,11.47
2022-08-07T05:42:34.925Z,11.48
2022-08-07T05:43:49.631Z,11.51
2022-08-07T05:44:29.540Z,11.54
2022-08-07T05:45:46.084Z,11.77
2022-08-07T05:46:26.419Z,11.80
2022-08-07T05:48:00.015Z,11.84
2022-08-07T05:48:26.394Z,11.84
2022-08-07T05:49:23.104Z,11.66
2022-08-07T05:50:23.109Z,11.72
2022-08-07T05:51:23.159Z,11.65
2022-08-07T05:52:32.179Z,11.90
2022-08-07T05:54:12.100Z,12.07
2022-08-07T05:54:30.878Z,12.18
2022-08-07T05:55:24.088Z,12.24
2022-08-07T05:56:30.027Z,12.28
2022-08-07T05:57:23.049Z,12.29
2022-08-07T05:58:36.330Z,12.28
2022-08-07T05:59:24.044Z,12.40
2022-08-07T06:00:23.032Z,12.54
2022-08-07T06:01:23.048Z,12.67
2022-08-07T06:02:29.016Z,12.68
2022-08-07T06:03:24.010Z,12.73
2022-08-07T06:04:30.100Z,12.76
2022-08-07T06:05:25.840Z,12.80
2022-08-07T06:06:23.989Z,12.79
2022-08-07T06:08:14.073Z,12.93
2022-08-07T06:08:31.325Z,12.86
2022-08-07T06:09:22.965Z,12.93
2022-08-07T06:10:23.958Z,12.95
2022-08-07T06:11:22.991Z,13.01
2022-08-07T06:12:31.864Z,13.00
2022-08-07T06:14:10.641Z,13.11
2022-08-07T06:14:28.786Z,13.19
2022-08-07T06:15:38.453Z,13.18
2022-08-07T06:16:23.909Z,13.25
2022-08-07T06:17:32.161Z,13.33
2022-08-07T06:18:23.948Z,13.37
2022-08-07T06:19:51.922Z,13.38
2022-08-07T06:20:32.009Z,13.44
2022-08-07T06:22:15.778Z,13.57
2022-08-07T06:22:27.260Z,13.54
2022-08-07T06:23:46.909Z,13.63
2022-08-07T06:24:52.186Z,13.62
2022-08-07T06:25:23.871Z,13.63
2022-08-07T06:26:27.763Z,13.65
2022-08-07T06:27:23.093Z,13.75
2022-08-07T06:28:27.755Z,13.78
2022-08-07T06:29:22.866Z,13.92
2022-08-07T06:30:31.768Z,13.85
2022-08-07T06:31:24.299Z,13.97
2022-08-07T06:32:23.817Z,14.03
2022-08-07T06:33:23.793Z,14.03
2022-08-07T06:34:22.783Z,14.18
2022-08-07T06:35:22.813Z,14.15
2022-08-07T06:36:35.059Z,14.15
2022-08-07T06:37:23.764Z,14.28
2022-08-07T06:38:23.761Z,14.32
2022-08-07T06:40:16.739Z,14.41
2022-08-07T06:40:23.919Z,14.44
2022-08-07T06:41:47.625Z,14.53
2022-08-07T06:42:33.058Z,14.55
2022-08-07T06:43:23.825Z,14.72
2022-08-07T06:44:22.719Z,14.66
2022-08-07T06:45:22.717Z,14.73
2022-08-07T06:46:31.313Z,14.81
2022-08-07T06:47:23.752Z,14.85
2022-08-07T06:48:24.759Z,14.86
2022-08-07T06:49:22.681Z,14.99
2022-08-07T06:50:22.673Z,15.02
2022-08-07T06:51:31.016Z,15.10
2022-08-07T06:52:31.271Z,15.17
2022-08-07T06:55:29.206Z,15.33
2022-08-07T06:55:31.950Z,15.29
2022-08-07T06:55:32.640Z,15.44
2022-08-07T06:56:23.687Z,15.39
2022-08-07T06:57:39.337Z,15.46
2022-08-07T06:58:27.428Z,15.51
2022-08-07T07:00:12.532Z,15.65
2022-08-07T07:00:23.618Z,15.72
2022-08-07T07:01:22.642Z,15.77
2022-08-07T07:02:49.236Z,15.83
2022-08-07T07:03:26.470Z,15.94
2022-08-07T07:04:32.941Z,15.97
2022-08-07T07:06:04.789Z,16.16
2022-08-07T07:06:26.168Z,16.23
2022-08-07T07:07:59.472Z,16.33
2022-08-07T07:08:25.651Z,16.29
2022-08-07T07:09:22.584Z,16.42
2022-08-07T07:10:22.535Z,16.49
2022-08-07T07:12:09.096Z,16.47
2022-08-07T07:12:31.135Z,16.54
2022-08-07T07:13:43.635Z,16.64
2022-08-07T07:14:24.511Z,16.68
2022-08-07T07:15:26.207Z,16.68
2022-08-07T07:16:22.543Z,16.78
2022-08-07T07:17:22.494Z,16.86
2022-08-07T07:18:47.797Z,16.89
2022-08-07T07:19:55.479Z,16.91
2022-08-07T07:20:23.468Z,16.99
2022-08-07T07:21:24.330Z,16.94
2022-08-07T07:22:36.547Z,17.08
2022-08-07T07:24:08.376Z,17.19
2022-08-07T07:24:23.443Z,17.22
2022-08-07T07:26:35.418Z,17.54
2022-08-07T07:26:35.622Z,17.34
2022-08-07T07:27:23.417Z,17.52
2022-08-07T07:28:42.369Z,17.54
2022-08-07T07:29:57.050Z,17.44
2022-08-07T07:30:26.524Z,17.42
2022-08-07T07:31:23.372Z,17.41
2022-08-07T07:32:22.422Z,17.64
2022-08-07T07:33:22.381Z,17.64
2022-08-07T07:34:22.367Z,17.65
2022-08-07T07:35:22.369Z,17.68
2022-08-07T07:36:22.356Z,17.51
2022-08-07T07:37:47.413Z,17.67
2022-08-07T07:38:23.346Z,17.63
2022-08-07T07:39:22.404Z,17.74
2022-08-07T07:40:25.237Z,17.94
2022-08-07T07:41:23.325Z,18.05
2022-08-07T07:42:33.049Z,18.11
2022-08-07T07:43:27.633Z,18.16
2022-08-07T07:44:26.590Z,18.03
2022-08-07T07:46:33.409Z,18.16
2022-08-07T07:46:53.349Z,18.18
2022-08-07T07:47:24.042Z,18.25
2022-08-07T07:48:35.082Z,18.35
2022-08-07T07:50:34.083Z,18.35
2022-08-07T07:50:35.337Z,18.34
2022-08-07T07:51:23.253Z,18.43
2022-08-07T07:52:22.241Z,18.49
2022-08-07T07:53:23.266Z,18.41
2022-08-07T07:54:22.245Z,18.49
2022-08-07T07:55:22.958Z,18.60
2022-08-07T07:56:30.629Z,18.70
2022-08-07T07:57:52.103Z,18.59
2022-08-07T07:58:23.229Z,18.62
2022-08-07T07:59:23.842Z,18.66
2022-08-07T08:00:31.270Z,18.34
2022-08-07T08:02:02.619Z,18.10
2022-08-07T08:02:35.463Z,18.29
2022-08-07T08:04:10.467Z,18.38
2022-08-07T08:04:25.747Z,18.50
2022-08-07T08:05:22.368Z,18.55
2022-08-07T08:06:23.142Z,18.71
2022-08-07T08:07:22.130Z,18.75
2022-08-07T08:08:34.372Z,18.92
2022-08-07T08:09:23.293Z,19.09
2022-08-07T08:10:37.584Z,19.19
2022-08-07T08:11:59.677Z,19.37
2022-08-07T08:12:52.531Z,19.37
2022-08-07T08:13:24.118Z,19.52
2022-08-07T08:14:26.355Z,19.47
2022-08-07T08:15:23.327Z,19.48
2022-08-07T08:16:24.965Z,19.52
2022-08-07T08:18:23.148Z,19.55
2022-08-07T08:18:36.433Z,19.62
2022-08-07T08:20:17.494Z,19.47
2022-08-07T08:20:27.380Z,19.36
2022-08-07T08:21:23.021Z,19.45
2022-08-07T08:22:23.030Z,19.45
2022-08-07T08:23:22.095Z,19.52
2022-08-07T08:24:36.115Z,19.58
2022-08-07T08:25:41.725Z,19.59
2022-08-07T08:26:23.003Z,19.51
2022-08-07T08:27:21.993Z,19.49
2022-08-07T08:28:23.951Z,19.54
2022-08-07T08:29:22.998Z,19.58
2022-08-07T08:30:21.980Z,19.70
2022-08-07T08:31:30.399Z,19.82
2022-08-07T08:32:25.447Z,19.92
2022-08-07T08:33:23.077Z,19.84
2022-08-07T08:34:27.252Z,19.92
2022-08-07T08:35:21.935Z,20.09
2022-08-07T08:36:25.704Z,20.32
2022-08-07T08:38:01.128Z,20.39
2022-08-07T08:38:29.582Z,20.65
2022-08-07T08:39:21.979Z,20.50
2022-08-07T08:40:23.506Z,20.60
2022-08-07T08:41:22.952Z,20.59
2022-08-07T08:42:21.882Z,20.66
2022-08-07T08:43:22.044Z,20.78
2022-08-07T08:44:29.135Z,20.97
2022-08-07T08:45:22.884Z,21.09
2022-08-07T08:46:22.063Z,21.09
2022-08-07T08:47:21.842Z,20.97
2022-08-07T08:48:21.854Z,21.11
2022-08-07T08:49:32.803Z,21.22
2022-08-07T08:50:35.120Z,21.22
2022-08-07T08:51:26.214Z,21.39
2022-08-07T08:52:22.815Z,21.40
2022-08-07T08:53:22.812Z,21.67
2022-08-07T08:54:21.821Z,21.69
2022-08-07T08:55:54.784Z,21.77
2022-08-07T08:56:24.562Z,21.88
2022-08-07T08:57:22.799Z,21.95
2022-08-07T08:58:28.526Z,21.98
2022-08-07T08:59:21.810Z,21.95
2022-08-07T09:00:21.765Z,21.69
2022-08-07T09:01:22.796Z,21.58
2022-08-07T09:02:34.778Z,21.79
2022-08-07T09:03:22.734Z,21.88
2022-08-07T09:04:26.086Z,21.92
2022-08-07T09:05:37.437Z,21.98
2022-08-07T09:06:23.697Z,22.35
2022-08-07T09:07:23.204Z,22.35
2022-08-07T09:08:28.145Z,21.92
2022-08-07T09:09:29.761Z,21.66
2022-08-07T09:10:21.706Z,21.75
2022-08-07T09:11:43.014Z,22.11
2022-08-07T09:12:30.969Z,22.35
2022-08-07T09:13:36.958Z,22.51
2022-08-07T09:14:22.655Z,22.60
2022-08-07T09:16:24.819Z,22.51
2022-08-07T09:16:29.745Z,22.63
2022-08-07T09:17:23.694Z,22.70
2022-08-07T09:18:23.380Z,22.78
2022-08-07T09:19:51.377Z,22.75
2022-08-07T09:20:35.010Z,22.63
2022-08-07T09:21:58.088Z,22.68
2022-08-07T09:24:31.147Z,22.72
2022-08-07T09:24:32.367Z,22.66
2022-08-07T09:24:32.871Z,22.55
2022-08-07T09:25:24.379Z,22.33
2022-08-07T09:26:21.568Z,22.48
2022-08-07T09:27:21.589Z,22.81
2022-08-07T09:30:00.815Z,23.24
2022-08-07T09:30:01.234Z,22.93
2022-08-07T09:30:25.388Z,23.32
2022-08-07T09:31:22.536Z,23.46
2022-08-07T09:32:21.558Z,23.61
2022-08-07T09:33:41.089Z,23.83
2022-08-07T09:34:22.514Z,23.61
2022-08-07T09:36:04.929Z,23.86
2022-08-07T09:36:22.498Z,23.93
2022-08-07T09:37:33.499Z,23.84
2022-08-07T09:38:23.259Z,23.99
2022-08-07T09:39:53.833Z,24.01
2022-08-07T09:40:22.564Z,23.98
2022-08-07T09:41:22.284Z,24.01
2022-08-07T09:42:23.142Z,23.98
2022-08-07T09:43:21.485Z,23.96
2022-08-07T09:44:40.273Z,23.87
2022-08-07T09:47:19.996Z,23.86
2022-08-07T09:47:52.061Z,23.77
2022-08-07T09:47:52.711Z,23.61
2022-08-07T09:48:22.640Z,23.46
2022-08-07T09:50:00.978Z,23.27
2022-08-07T09:50:22.412Z,23.13
2022-08-07T09:52:10.033Z,23.61
2022-08-07T09:52:34.241Z,23.74
2022-08-07T09:53:22.368Z,23.96
2022-08-07T09:54:21.693Z,24.13
2022-08-07T09:55:36.869Z,24.16
2022-08-07T09:56:37.305Z,24.32
2022-08-07T09:57:22.395Z,24.35
2022-08-07T09:58:21.325Z,23.81
2022-08-07T09:59:24.868Z,23.88
2022-08-07T10:00:21.317Z,23.98
2022-08-07T10:01:51.100Z,24.20
2022-08-07T10:02:24.177Z,24.24
2022-08-07T10:04:05.963Z,24.40
2022-08-07T10:04:28.331Z,24.68
2022-08-07T10:05:58.223Z,24.98
2022-08-07T10:06:24.516Z,24.98
2022-08-07T10:07:24.406Z,24.85
2022-08-07T10:08:21.260Z,24.51
2022-08-07T10:09:34.216Z,23.54
2022-08-07T10:10:22.757Z,23.69
2022-08-07T10:12:01.990Z,24.05
2022-08-07T10:12:26.327Z,24.54
2022-08-07T10:13:55.556Z,25.04
2022-08-07T10:14:23.095Z,25.62
2022-08-07T10:15:22.213Z,25.63
2022-08-07T10:16:21.251Z,26.15
2022-08-07T10:17:21.226Z,26.55
2022-08-07T10:18:26.248Z,27.05
2022-08-07T10:19:21.176Z,27.10
2022-08-07T10:20:21.854Z,27.18
2022-08-07T10:22:12.366Z,27.54
2022-08-07T10:22:24.929Z,27.65
2022-08-07T10:24:05.920Z,27.65
2022-08-07T10:24:22.138Z,27.87
2022-08-07T10:25:22.863Z,28.01
2022-08-07T10:26:24.675Z,28.07
2022-08-07T10:27:21.228Z,28.38
2022-08-07T10:28:21.133Z,28.64
2022-08-07T10:29:21.099Z,28.45
2022-08-07T10:30:21.094Z,28.27
2022-08-07T10:31:21.074Z,28.37
2022-08-07T10:32:51.495Z,27.45
2022-08-07T10:33:23.623Z,27.70
2022-08-07T10:34:31.832Z,27.70
2022-08-07T10:35:25.521Z,27.96
2022-08-07T10:36:29.655Z,28.56
2022-08-07T10:37:26.577Z,28.00
2022-08-07T10:38:42.006Z,27.92
2022-08-07T10:39:22.114Z,28.37
2022-08-07T10:40:21.227Z,29.10
2022-08-07T10:41:46.508Z,29.35
2022-08-07T10:42:31.412Z,29.73
2022-08-07T10:43:29.801Z,30.03
2022-08-07T10:44:28.883Z,29.98
2022-08-07T10:45:44.120Z,27.95
2022-08-07T10:46:21.984Z,28.27
2022-08-07T10:47:26.865Z,28.91
2022-08-07T10:48:21.987Z,28.81
2022-08-07T10:49:24.620Z,28.88
2022-08-07T10:50:25.908Z,28.98
2022-08-07T10:51:57.675Z,29.36
2022-08-07T10:52:21.931Z,28.94
2022-08-07T10:53:21.280Z,28.79
2022-08-07T10:54:20.934Z,29.08
2022-08-07T10:55:38.158Z,29.78
2022-08-07T10:56:30.901Z,29.82
2022-08-07T10:57:33.977Z,29.97
2022-08-07T10:58:24.930Z,30.13
2022-08-07T10:59:22.202Z,30.06
2022-08-07T11:00:36.475Z,29.07
2022-08-07T11:01:23.635Z,28.78
2022-08-07T11:02:33.038Z,29.10
2022-08-07T11:03:21.910Z,29.86
2022-08-07T11:04:32.188Z,29.01
2022-08-07T11:05:24.097Z,28.96
2022-08-07T11:06:22.039Z,29.36
2022-08-07T11:07:56.074Z,29.31
2022-08-07T11:08:21.848Z,29.75
2022-08-07T11:10:10.389Z,30.12
2022-08-07T11:10:21.815Z,29.78
2022-08-07T11:11:21.828Z,29.08
2022-08-07T11:12:31.826Z,28.74
2022-08-07T11:14:45.252Z,28.12
2022-08-07T11:14:57.067Z,28.12
2022-08-07T11:15:21.770Z,27.89
2022-08-07T11:16:21.781Z,28.75
2022-08-07T11:17:23.211Z,29.31
2022-08-07T11:18:21.786Z,29.91
2022-08-07T11:19:21.825Z,30.48
2022-08-07T11:20:22.497Z,30.69
2022-08-07T11:21:20.739Z,30.43
2022-08-07T11:22:32.368Z,30.63
2022-08-07T11:23:30.309Z,31.02
2022-08-07T11:24:21.717Z,30.65
2022-08-07T11:25:21.717Z,29.90
2022-08-07T11:26:20.719Z,30.39
2022-08-07T11:27:20.757Z,30.85
2022-08-07T11:28:21.742Z,30.99
2022-08-07T11:29:43.116Z,30.84
2022-08-07T11:30:41.989Z,30.32
2022-08-07T11:31:21.685Z,30.62
2022-08-07T11:32:25.252Z,31.10
2022-08-07T11:33:54.011Z,31.22
2022-08-07T11:34:21.679Z,31.03
2022-08-07T11:35:25.291Z,30.69
2022-08-07T11:36:30.646Z,30.57
2022-08-07T11:37:24.392Z,30.77
2022-08-07T11:38:21.775Z,30.51
2022-08-07T11:39:21.711Z,31.15
2022-08-07T11:40:20.648Z,31.62
2022-08-07T11:41:31.007Z,31.55
2022-08-07T11:42:21.639Z,31.33
2022-08-07T11:43:41.576Z,31.14
2022-08-07T11:44:21.645Z,30.97
2022-08-07T11:45:23.813Z,31.64
2022-08-07T11:46:21.602Z,32.26
2022-08-07T11:47:20.605Z,32.41
2022-08-07T11:48:29.460Z,32.16
2022-08-07T11:49:51.021Z,31.64
2022-08-07T11:50:31.757Z,31.29
2022-08-07T11:51:41.475Z,31.09
2022-08-07T11:52:29.385Z,31.17
2022-08-07T11:53:21.751Z,30.77
2022-08-07T11:54:22.107Z,30.47
2022-08-07T11:56:25.936Z,30.83
2022-08-07T11:56:26.366Z,31.07
2022-08-07T11:57:20.534Z,31.09
2022-08-07T11:58:21.521Z,30.57
2022-08-07T12:00:12.504Z,28.59
2022-08-07T12:00:28.449Z,27.45
2022-08-07T12:01:22.200Z,28.19
2022-08-07T12:02:29.928Z,27.49
2022-08-07T12:03:44.910Z,27.30
2022-08-07T12:04:21.494Z,28.30
2022-08-07T12:05:28.909Z,27.03
2022-08-07T12:06:37.402Z,26.74
2022-08-07T12:07:27.338Z,26.78
2022-08-07T12:08:25.734Z,27.78
2022-08-07T12:09:23.372Z,29.26
2022-08-07T12:10:20.459Z,30.32
2022-08-07T12:11:22.430Z,31.06
2022-08-07T12:12:20.444Z,31.71
2022-08-07T12:13:35.328Z,31.97
2022-08-07T12:14:21.442Z,32.09
2022-08-07T12:15:45.953Z,31.93
2022-08-07T12:16:30.063Z,32.07
2022-08-07T12:17:22.056Z,32.11
2022-08-07T12:18:22.163Z,31.36
2022-08-07T12:19:22.000Z,31.28
2022-08-07T12:20:30.721Z,30.99
2022-08-07T12:21:55.560Z,30.65
2022-08-07T12:22:39.677Z,31.20
2022-08-07T12:23:37.267Z,31.76
2022-08-07T12:24:37.961Z,32.23
2022-08-07T12:26:05.559Z,32.63
2022-08-07T12:26:22.651Z,33.11
2022-08-07T12:27:27.971Z,33.71
2022-08-07T12:28:30.841Z,33.84
2022-08-07T12:29:37.862Z,33.76
2022-08-07T12:30:23.527Z,33.89
2022-08-07T12:31:22.305Z,33.52
2022-08-07T12:32:20.356Z,33.02
2022-08-07T12:33:23.381Z,32.77
2022-08-07T12:34:21.301Z,32.59
2022-08-07T12:35:20.296Z,32.36
2022-08-07T12:36:20.271Z,32.56
2022-08-07T12:37:23.425Z,32.83
2022-08-07T12:38:36.890Z,32.82
2022-08-07T12:39:44.346Z,33.20
2022-08-07T12:40:46.336Z,33.84
2022-08-07T12:41:22.302Z,34.23
2022-08-07T12:42:27.027Z,34.52
2022-08-07T12:44:02.860Z,34.01
2022-08-07T12:44:21.343Z,33.49
2022-08-07T12:45:20.209Z,33.89
2022-08-07T12:46:26.627Z,33.74
2022-08-07T12:47:27.161Z,33.30
2022-08-07T12:48:28.332Z,32.82
2022-08-07T12:49:25.310Z,32.55
2022-08-07T12:50:34.268Z,32.90
2022-08-07T12:51:21.170Z,32.53
2022-08-07T12:52:20.154Z,32.73
2022-08-07T12:53:21.891Z,32.85
2022-08-07T12:54:36.921Z,32.73
2022-08-07T12:55:21.139Z,33.20
2022-08-07T12:56:20.124Z,33.52
2022-08-07T12:57:20.161Z,32.93
2022-08-07T12:58:20.114Z,32.59
2022-08-07T12:59:21.198Z,32.74
2022-08-07T13:00:31.343Z,32.73
2022-08-07T13:01:21.138Z,32.83
2022-08-07T13:02:21.135Z,33.00